Airfield :
LOGIN :

Register | Disclaimer

   EN    FR    IT 

 










Legend :    VFR   Marginal VFR   IFR   Intensive IFR   Very Intensive IFR
Visi :
Ceiling :
>= 8 km
>= 3000ft
5 to 8 km
1000 to 3000 ft
1500m to 5 km
500 to 1000 ft
800 to 1500m
200 to 500 ft
< 800m
< 200 ft
Symbols :   Thunderstorms  Fog  Heavy snow  Heavy precipitations  Wind > 20 kt
SIGMETs :     Misc.  Thunderstorms  Icing  Turbulence  Mountain Waves  Volcanic Ashes






- Airport Elevation : 375 ft
- IATA code : MST


EHBK - Maastricht Aachen

CURRENT METAR :
  • 192255Z AUTO 20005KT 9999 NCD 01/M00 Q1019 NOSIG

EXPIRED METARs :
  • 192225Z AUTO 20005KT 9999 NCD 02/00 Q1019 NOSIG
  • 192155Z AUTO 19004KT 9999 NCD 01/00 Q1019 NOSIG
  • 192125Z AUTO 20003KT 170V230 9999 NCD 01/01 Q1019 NOSIG
  • 192055Z AUTO 20003KT 160V240 9999 NCD 02/00 Q1019 NOSIG
  • 192025Z AUTO VRB02KT 9999 NCD 02/01 Q1019 NOSIG

TAF TAF EHBK
Valid from the 19 at 18:00 until the 21 at 00:00 UTC


191647Z 1918/2024 24005KT CAVOK
BECMG 1922/2001 6000
PROB30 1922/2006 3000 MIFG BR
BECMG 2007/2010 CAVOK
PROB40 2019/2024 6000



MET'MAP, your aeronautical weather chart ! - Copyright ORBIFLY December 2007 - Disclaimer

ORBIFLY MET'MAP TEAM :

Programming & Development : Alexandra Zaïnal
Concept & Development : Baudouin d'Aumeries
Co-Development & Prog : Marc-Olivier Méhu
Technical & hardware support : Manuel Goepfert

Contact : metmap@orbifly.com




SOURCES & CREDITS :

   NOAA